Time;durP1;ratioP1;P1;durP2;ratioP2;P2;SDS_P1;SDS_P2;PMS_P1;PMS_P2;Temp;Humidity;BMP_temperature;BMP_pressure;BME280_temperature;BME280_humidity;BME280_pressure;Samples;Min_cycle;Max_cycle;Signal;HPM_P1;HPM_P2
2022/05/31 00:01:09;;;;;;;5.68;2.65;;;7.50;99.90;;;;;;5053760;28;20171;-73
2022/05/31 00:03:35;;;;;;;4.68;2.40;;;7.50;99.90;;;;;;5053600;28;20191;-73
2022/05/31 00:06:00;;;;;;;2.72;2.30;;;7.60;99.90;;;;;;5053726;28;20186;-74
2022/05/31 00:08:26;;;;;;;3.80;2.30;;;7.60;99.90;;;;;;5053667;28;20232;-74
2022/05/31 00:10:51;;;;;;;2.75;2.45;;;7.60;99.90;;;;;;5053764;28;20210;-74
2022/05/31 00:13:17;;;;;;;4.07;2.20;;;7.50;99.90;;;;;;5053768;28;20198;-74
2022/05/31 00:15:43;;;;;;;3.67;2.20;;;7.50;99.90;;;;;;5053860;28;20185;-74
2022/05/31 00:18:08;;;;;;;4.78;2.42;;;7.60;99.90;;;;;;5053745;28;20269;-74
2022/05/31 00:20:34;;;;;;;3.15;2.63;;;7.60;99.90;;;;;;5054615;28;20178;-74
2022/05/31 00:23:00;;;;;;;3.58;2.20;;;7.60;99.90;;;;;;5054577;28;20197;-74
2022/05/31 00:25:26;;;;;;;5.45;2.33;;;7.70;99.90;;;;;;5054810;28;20190;-74
2022/05/31 00:27:51;;;;;;;2.90;2.17;;;7.70;99.90;;;;;;5054494;28;20174;-74
2022/05/31 00:30:17;;;;;;;5.50;2.40;;;7.70;99.90;;;;;;5053128;28;20212;-74
2022/05/31 00:32:47;;;;;;;4.38;2.30;;;7.70;99.90;;;;;;5053476;28;20178;-74
2022/05/31 00:35:25;;;;;;;4.57;2.40;;;7.70;99.90;;;;;;5054614;28;20198;-74
2022/05/31 00:37:52;;;;;;;3.88;2.20;;;7.70;99.90;;;;;;5053871;28;20544;-74
2022/05/31 00:40:19;;;;;;;7.15;2.45;;;7.70;99.90;;;;;;5053375;28;20240;-74
2022/05/31 00:43:11;;;;;;;8.20;2.55;;;7.70;99.90;;;;;;5052858;28;20184;-74
2022/05/31 00:45:52;;;;;;;8.48;2.63;;;7.50;99.90;;;;;;5051846;28;20185;-74
2022/05/31 00:48:42;;;;;;;3.65;2.40;;;7.40;99.90;;;;;;5052987;28;20180;-74
2022/05/31 00:51:14;;;;;;;6.43;2.67;;;7.30;99.90;;;;;;5054376;28;20170;-74
2022/05/31 00:53:46;;;;;;;8.70;2.83;;;7.30;99.90;;;;;;5052810;28;20197;-74
2022/05/31 00:56:19;;;;;;;9.27;2.78;;;7.30;99.90;;;;;;5054333;28;20250;-74
2022/05/31 00:59:05;;;;;;;6.07;2.47;;;7.30;99.90;;;;;;5052701;28;20198;-74
2022/05/31 01:01:35;;;;;;;10.57;2.70;;;7.30;99.90;;;;;;5053425;28;20177;-74
2022/05/31 01:04:00;;;;;;;4.95;2.30;;;7.40;99.90;;;;;;5053796;28;20688;-74
2022/05/31 01:06:27;;;;;;;6.40;2.78;;;7.30;99.90;;;;;;5052669;28;20224;-74
2022/05/31 01:08:56;;;;;;;5.57;2.33;;;7.30;99.90;;;;;;5052502;28;20178;-74
2022/05/31 01:11:23;;;;;;;6.25;2.70;;;7.30;99.90;;;;;;5053933;28;20261;-74
2022/05/31 01:13:49;;;;;;;12.38;3.05;;;7.30;99.90;;;;;;5053011;28;20229;-74
2022/05/31 01:16:15;;;;;;;16.02;2.60;;;7.20;99.90;;;;;;5052720;28;20223;-74
2022/05/31 01:18:41;;;;;;;8.63;2.28;;;7.30;99.90;;;;;;5054418;28;20182;-74
2022/05/31 01:21:08;;;;;;;7.13;2.50;;;7.30;99.90;;;;;;5053837;28;20213;-74
2022/05/31 01:24:15;;;;;;;6.28;2.40;;;7.30;99.90;;;;;;5052570;28;20201;-74
2022/05/31 01:27:02;;;;;;;2.50;2.30;;;7.30;99.90;;;;;;5052164;28;20196;-74
2022/05/31 01:29:33;;;;;;;3.95;2.42;;;7.30;99.90;;;;;;5053667;28;20204;-74
2022/05/31 01:32:02;;;;;;;6.50;2.57;;;7.10;99.90;;;;;;5053523;28;20155;-74
2022/05/31 01:34:34;;;;;;;3.03;2.40;;;7.00;99.90;;;;;;5052097;28;20202;-74
2022/05/31 01:37:00;;;;;;;5.70;2.42;;;6.90;99.90;;;;;;5052123;28;20213;-74
2022/05/31 01:39:46;;;;;;;6.27;2.30;;;6.70;99.90;;;;;;5053418;28;20250;-74
2022/05/31 01:42:36;;;;;;;3.33;2.30;;;6.80;99.90;;;;;;5053773;28;20554;-74
2022/05/31 01:45:20;;;;;;;3.63;2.40;;;6.80;99.90;;;;;;5053341;28;20166;-74
2022/05/31 01:47:46;;;;;;;3.87;2.30;;;6.70;99.90;;;;;;5053485;28;20162;-74
2022/05/31 01:50:15;;;;;;;5.50;2.30;;;6.70;99.90;;;;;;5051920;28;20206;-74
2022/05/31 01:52:41;;;;;;;2.73;2.43;;;6.70;99.90;;;;;;5051911;28;20194;-74
2022/05/31 01:55:09;;;;;;;4.33;2.33;;;6.80;99.90;;;;;;5052226;28;20292;-74
2022/05/31 01:57:35;;;;;;;5.17;2.40;;;6.70;99.90;;;;;;5057780;28;20189;-74
2022/05/31 02:00:08;;;;;;;3.20;2.60;;;6.80;99.90;;;;;;5057272;28;20186;-74
2022/05/31 02:02:34;;;;;;;2.93;2.20;;;6.80;99.90;;;;;;5056009;28;20537;-74
2022/05/31 02:04:59;;;;;;;3.33;2.20;;;6.70;99.90;;;;;;5056178;28;20198;-74
2022/05/31 02:07:26;;;;;;;2.50;2.30;;;6.60;99.90;;;;;;5055911;28;20178;-74
2022/05/31 02:09:53;;;;;;;5.23;2.70;;;6.60;99.90;;;;;;5055798;28;20213;-74
2022/05/31 02:12:22;;;;;;;3.93;2.60;;;6.60;99.90;;;;;;5056171;28;20252;-74
2022/05/31 02:14:48;;;;;;;2.50;2.30;;;6.40;99.90;;;;;;5056001;28;20352;-74
2022/05/31 02:17:16;;;;;;;2.87;2.33;;;6.40;99.90;;;;;;5055715;28;20646;-74
2022/05/31 02:19:42;;;;;;;9.20;2.73;;;6.40;99.90;;;;;;5057028;28;20171;-74
2022/05/31 02:22:12;;;;;;;4.53;2.60;;;6.40;99.90;;;;;;5055901;28;20182;-74
2022/05/31 02:24:37;;;;;;;2.97;2.70;;;6.50;99.90;;;;;;5055511;28;20194;-74
2022/05/31 02:27:05;;;;;;;2.47;2.27;;;6.50;99.90;;;;;;5055567;28;20360;-74
2022/05/31 02:29:34;;;;;;;4.23;2.30;;;6.50;99.90;;;;;;5055406;28;20673;-74
2022/05/31 02:32:03;;;;;;;3.43;2.50;;;6.50;99.90;;;;;;5055376;28;20174;-74
2022/05/31 02:34:35;;;;;;;4.27;2.57;;;6.50;99.90;;;;;;5055326;28;20202;-74
2022/05/31 02:37:01;;;;;;;2.53;2.33;;;6.50;99.90;;;;;;5055241;28;20214;-74
2022/05/31 02:39:26;;;;;;;5.00;2.47;;;6.40;99.90;;;;;;5056561;28;20269;-74
2022/05/31 02:41:53;;;;;;;4.53;2.70;;;6.40;99.90;;;;;;5056338;28;20178;-74
2022/05/31 02:44:19;;;;;;;3.23;2.40;;;6.40;99.90;;;;;;5056295;28;20226;-74
2022/05/31 02:46:45;;;;;;;3.07;2.27;;;6.30;99.90;;;;;;5056230;28;20274;-74
2022/05/31 02:49:11;;;;;;;3.43;2.27;;;6.40;99.90;;;;;;5055022;28;20300;-74
2022/05/31 02:51:38;;;;;;;2.50;2.30;;;6.30;99.90;;;;;;5055071;28;20170;-74
2022/05/31 02:54:04;;;;;;;3.27;2.57;;;6.30;99.90;;;;;;5054915;28;20201;-74
2022/05/31 02:56:30;;;;;;;2.70;2.50;;;6.30;99.90;;;;;;5054933;28;20182;-74
2022/05/31 02:58:56;;;;;;;3.47;2.37;;;6.30;99.90;;;;;;5055230;28;20186;-74
2022/05/31 03:01:23;;;;;;;2.53;2.30;;;6.30;99.90;;;;;;5054859;28;20248;-74
2022/05/31 03:03:49;;;;;;;3.27;2.53;;;6.40;99.90;;;;;;5054677;28;20198;-74
2022/05/31 03:06:15;;;;;;;2.73;2.27;;;6.50;99.90;;;;;;5055075;28;20174;-74
2022/05/31 03:08:41;;;;;;;4.33;2.60;;;6.50;99.90;;;;;;5055213;28;20188;-74
2022/05/31 03:11:14;;;;;;;4.37;2.40;;;6.60;99.90;;;;;;5054529;28;20209;-74
2022/05/31 03:13:41;;;;;;;8.63;2.60;;;6.50;99.90;;;;;;5054636;28;20228;-74
2022/05/31 03:16:07;;;;;;;3.37;2.40;;;6.60;99.90;;;;;;5056060;28;20179;-74
2022/05/31 03:18:37;;;;;;;2.60;2.40;;;6.50;99.90;;;;;;5055956;28;20167;-74
2022/05/31 03:21:15;;;;;;;4.53;2.60;;;6.30;99.90;;;;;;5054459;28;20170;-74
2022/05/31 03:23:45;;;;;;;2.90;2.60;;;6.40;99.90;;;;;;5055587;28;20212;-74
2022/05/31 03:26:13;;;;;;;4.73;2.70;;;6.30;99.90;;;;;;5055954;28;20179;-74
2022/05/31 03:28:39;;;;;;;3.87;2.47;;;6.40;99.90;;;;;;5055013;28;20186;-74
2022/05/31 03:31:06;;;;;;;3.53;2.37;;;6.40;99.90;;;;;;5054429;28;20355;-74
2022/05/31 03:33:32;;;;;;;3.13;2.40;;;6.50;99.90;;;;;;5055360;28;20202;-74
2022/05/31 03:35:58;;;;;;;6.70;2.67;;;6.50;99.90;;;;;;5054147;28;20178;-74
2022/05/31 03:38:23;;;;;;;4.03;2.50;;;6.50;99.90;;;;;;5054172;28;20181;-74
2022/05/31 03:41:01;;;;;;;7.37;2.53;;;6.50;99.90;;;;;;5054094;28;20233;-74
2022/05/31 03:43:33;;;;;;;3.43;2.33;;;6.50;99.90;;;;;;5053952;28;20707;-74
2022/05/31 03:45:58;;;;;;;2.83;2.63;;;6.50;99.90;;;;;;5055095;28;20182;-74
2022/05/31 03:48:25;;;;;;;3.27;2.73;;;6.50;99.90;;;;;;5054143;28;20186;-74
2022/05/31 03:51:02;;;;;;;2.63;2.43;;;6.50;99.90;;;;;;5053756;28;20689;-74
2022/05/31 03:53:28;;;;;;;2.93;2.63;;;6.60;99.90;;;;;;5054064;28;20288;-74
2022/05/31 03:55:54;;;;;;;4.50;2.97;;;6.50;99.90;;;;;;5054085;28;20175;-74
2022/05/31 03:58:20;;;;;;;3.37;2.60;;;6.50;99.90;;;;;;5055232;28;20178;-74
2022/05/31 04:00:46;;;;;;;3.03;2.80;;;6.50;99.90;;;;;;5053879;28;20189;-74
2022/05/31 04:03:13;;;;;;;2.50;2.30;;;6.50;99.90;;;;;;5054040;28;20198;-73
2022/05/31 04:05:38;;;;;;;3.77;2.83;;;6.50;99.90;;;;;;5053723;28;20269;-73
2022/05/31 04:08:08;;;;;;;3.97;2.90;;;6.50;99.90;;;;;;5053663;28;20250;-73
2022/05/31 04:10:35;;;;;;;2.93;2.60;;;6.60;99.90;;;;;;5054767;28;20273;-74
2022/05/31 04:13:01;;;;;;;8.37;2.57;;;6.70;99.90;;;;;;5053550;28;20197;-74
2022/05/31 04:15:27;;;;;;;9.93;2.97;;;6.80;99.90;;;;;;5056637;28;20243;-74
2022/05/31 04:17:54;;;;;;;10.52;2.75;;;6.90;99.90;;;;;;5056561;28;20190;-77
2022/05/31 04:20:20;;;;;;;5.97;2.80;;;7.00;99.90;;;;;;5065469;28;20190;-72
2022/05/31 04:22:46;;;;;;;3.20;2.50;;;7.00;99.90;;;;;;5060936;28;20201;-72
2022/05/31 04:25:12;;;;;;;5.33;2.70;;;7.10;99.90;;;;;;5053385;28;20656;-75
2022/05/31 04:27:38;;;;;;;4.85;2.88;;;7.20;99.90;;;;;;5054447;28;20178;-72
2022/05/31 04:30:04;;;;;;;3.50;2.60;;;7.20;99.90;;;;;;5054077;28;20220;-72
2022/05/31 04:32:30;;;;;;;4.25;2.90;;;7.30;99.90;;;;;;5053698;28;20178;-74
2022/05/31 04:34:56;;;;;;;5.45;2.70;;;7.40;99.90;;;;;;5056115;28;20205;-75
2022/05/31 04:37:22;;;;;;;8.15;3.45;;;7.40;99.90;;;;;;5066207;28;20186;-75
2022/05/31 04:39:48;;;;;;;9.27;2.90;;;7.50;99.90;;;;;;5066962;28;20193;-75
2022/05/31 04:42:14;;;;;;;6.25;2.90;;;7.60;99.90;;;;;;5066440;28;20204;-75
2022/05/31 04:44:39;;;;;;;7.32;2.92;;;7.60;99.90;;;;;;5055380;28;20194;-75
2022/05/31 04:47:06;;;;;;;6.30;3.00;;;7.80;99.90;;;;;;5055109;28;20224;-76
2022/05/31 04:49:31;;;;;;;8.85;2.90;;;8.10;99.90;;;;;;5054747;28;20205;-75
2022/05/31 04:51:57;;;;;;;9.23;3.33;;;8.40;99.90;;;;;;5055302;28;20224;-75
2022/05/31 04:54:24;;;;;;;7.45;3.13;;;8.60;99.90;;;;;;5055019;28;20205;-74
2022/05/31 04:56:52;;;;;;;19.15;3.63;;;8.80;99.90;;;;;;5055576;28;20181;-74
2022/05/31 04:59:19;;;;;;;14.00;3.15;;;9.00;99.90;;;;;;5056000;28;20592;-74
2022/05/31 05:01:45;;;;;;;7.38;2.50;;;9.30;99.90;;;;;;5054175;28;20178;-76
2022/05/31 05:04:11;;;;;;;7.90;3.33;;;9.40;99.90;;;;;;5054199;28;20194;-74
2022/05/31 05:06:48;;;;;;;20.90;8.02;;;9.50;99.90;;;;;;5053119;28;20265;-78
2022/05/31 05:09:14;;;;;;;14.93;6.30;;;9.30;99.90;;;;;;5054640;28;20236;-75
2022/05/31 05:11:39;;;;;;;16.65;5.10;;;9.40;99.90;;;;;;5053030;28;20252;-74
2022/05/31 05:14:05;;;;;;;11.07;5.22;;;9.50;99.90;;;;;;5052757;28;20665;-74
2022/05/31 05:16:31;;;;;;;10.18;5.38;;;9.60;99.90;;;;;;5053007;28;20182;-74
2022/05/31 05:18:56;;;;;;;9.02;4.13;;;9.60;99.90;;;;;;5052814;28;20193;-74
2022/05/31 05:21:22;;;;;;;9.77;3.95;;;9.70;99.90;;;;;;5053213;28;20170;-74
2022/05/31 05:23:48;;;;;;;6.38;3.53;;;9.70;99.90;;;;;;5052551;28;20204;-74
2022/05/31 05:26:14;;;;;;;12.95;3.50;;;9.80;99.90;;;;;;5053607;28;20649;-74
2022/05/31 05:31:30;;;;;;;24.58;4.90;;;9.80;99.90;;;;;;5054552;28;20755;-74
2022/05/31 05:33:57;;;;;;;11.77;3.63;;;9.90;99.90;;;;;;5053368;28;20194;-74
2022/05/31 05:36:23;;;;;;;16.13;7.57;;;10.00;99.90;;;;;;5052919;28;20176;-74
2022/05/31 05:38:49;;;;;;;20.10;5.47;;;10.10;99.90;;;;;;5053327;28;20285;-74
2022/05/31 05:41:17;;;;;;;9.80;3.97;;;10.40;99.90;;;;;;5053472;28;20296;-74
2022/05/31 05:43:43;;;;;;;13.52;5.00;;;10.60;99.90;;;;;;5052929;28;20285;-74
2022/05/31 05:46:14;;;;;;;13.13;3.42;;;10.90;99.90;;;;;;5053184;28;20204;-75
2022/05/31 05:48:40;;;;;;;7.43;3.40;;;11.30;99.90;;;;;;5053273;28;20217;-75
2022/05/31 05:51:21;;;;;;;8.02;3.22;;;11.40;99.90;;;;;;5053007;28;20252;-75
2022/05/31 05:53:46;;;;;;;10.50;3.30;;;11.50;99.90;;;;;;5052671;28;20202;-74
2022/05/31 05:56:13;;;;;;;10.48;3.55;;;11.60;99.90;;;;;;5053871;28;20176;-74
2022/05/31 05:58:39;;;;;;;7.25;2.95;;;11.70;99.90;;;;;;5052629;28;20174;-74
2022/05/31 06:01:09;;;;;;;13.27;3.45;;;11.80;99.90;;;;;;5052586;28;20231;-74
2022/05/31 06:03:39;;;;;;;8.05;2.83;;;11.90;99.90;;;;;;5053148;28;20225;-74
2022/05/31 06:06:05;;;;;;;16.80;3.50;;;12.10;99.90;;;;;;5052938;28;20190;-74
2022/05/31 06:08:38;;;;;;;9.15;3.78;;;12.10;99.90;;;;;;5053971;28;20190;-74
2022/05/31 06:11:31;;;;;;;12.30;3.70;;;12.30;99.90;;;;;;5052847;28;20196;-75
2022/05/31 06:14:06;;;;;;;5.10;3.28;;;12.60;99.90;;;;;;5052966;28;20202;-74
2022/05/31 06:16:34;;;;;;;9.70;3.15;;;12.90;99.90;;;;;;5052602;28;20309;-74
2022/05/31 06:19:15;;;;;;;3.85;2.72;;;13.10;99.90;;;;;;5054196;28;20209;-75
2022/05/31 06:21:41;;;;;;;3.50;2.60;;;13.50;99.90;;;;;;5052537;28;20162;-75
2022/05/31 06:24:06;;;;;;;4.90;2.58;;;14.20;99.90;;;;;;5052549;28;20202;-74
2022/05/31 06:26:32;;;;;;;12.73;2.97;;;14.80;99.30;;;;;;5052856;28;20688;-74
2022/05/31 06:28:58;;;;;;;9.63;2.90;;;15.60;95.10;;;;;;5053627;28;20550;-75
2022/05/31 06:31:23;;;;;;;4.90;2.40;;;16.40;93.00;;;;;;5052779;28;20309;-75
2022/05/31 06:33:49;;;;;;;4.20;2.10;;;17.00;88.50;;;;;;5052966;28;20665;-75
2022/05/31 06:36:14;;;;;;;3.33;1.88;;;17.00;82.90;;;;;;5053951;28;20257;-76
2022/05/31 06:38:41;;;;;;;3.60;2.22;;;17.30;82.80;;;;;;5052510;28;20210;-74
2022/05/31 06:41:07;;;;;;;5.72;2.38;;;17.80;79.40;;;;;;5051092;28;20248;-73
2022/05/31 06:43:34;;;;;;;3.60;1.80;;;18.20;78.80;;;;;;5053453;28;20194;-73
2022/05/31 06:46:04;;;;;;;1.92;1.80;;;18.40;76.10;;;;;;5055093;28;20216;-73
2022/05/31 06:48:30;;;;;;;3.47;1.65;;;18.00;70.90;;;;;;5056627;28;20158;-73
2022/05/31 06:50:56;;;;;;;2.50;1.70;;;17.10;73.10;;;;;;5055162;28;20208;-73
2022/05/31 06:58:49;;;;;;;3.95;2.05;;;15.30;80.50;;;;;;5056104;28;20274;-73
2022/05/31 07:01:15;;;;;;;2.40;2.15;;;15.10;83.00;;;;;;5054945;28;20692;-73
2022/05/31 07:03:41;;;;;;;2.00;1.90;;;14.90;83.90;;;;;;5054741;28;20573;-73
2022/05/31 07:06:06;;;;;;;3.25;2.03;;;14.90;83.80;;;;;;5056002;28;20185;-73
2022/05/31 07:08:32;;;;;;;2.15;1.80;;;15.00;86.10;;;;;;5055820;28;20205;-73
2022/05/31 07:10:59;;;;;;;4.57;2.00;;;15.10;85.40;;;;;;5054508;28;20248;-72
2022/05/31 07:13:25;;;;;;;2.88;1.90;;;14.80;83.90;;;;;;5054890;28;20209;-72
2022/05/31 07:15:52;;;;;;;2.20;1.80;;;14.80;84.60;;;;;;5055652;28;20251;-72
2022/05/31 07:18:19;;;;;;;2.65;1.98;;;14.90;84.50;;;;;;5054434;28;20178;-73
2022/05/31 07:20:44;;;;;;;2.25;1.83;;;15.00;85.80;;;;;;5055602;28;20186;-73
2022/05/31 07:23:10;;;;;;;2.97;1.90;;;15.20;86.20;;;;;;5055825;28;20200;-73
2022/05/31 07:25:36;;;;;;;6.35;1.83;;;15.40;84.90;;;;;;5054533;28;20273;-73
2022/05/31 07:28:02;;;;;;;2.20;1.95;;;15.50;84.60;;;;;;5055615;28;20260;-74
2022/05/31 07:30:28;;;;;;;2.17;1.67;;;15.40;84.30;;;;;;5054032;28;20205;-73
2022/05/31 07:32:53;;;;;;;3.40;1.88;;;15.40;83.80;;;;;;5054156;28;20181;-73
2022/05/31 07:35:19;;;;;;;4.38;2.10;;;15.60;85.60;;;;;;5054120;28;20268;-73
2022/05/31 07:37:45;;;;;;;4.20;2.17;;;15.70;85.00;;;;;;5054594;28;20205;-73
2022/05/31 07:40:11;;;;;;;4.72;2.15;;;15.60;84.30;;;;;;5053830;28;20699;-73
2022/05/31 07:42:37;;;;;;;6.38;2.30;;;15.70;84.40;;;;;;5053896;28;20186;-73
2022/05/31 07:45:02;;;;;;;1.95;1.80;;;16.10;84.40;;;;;;5053935;28;20197;-73
2022/05/31 07:47:29;;;;;;;5.60;2.15;;;16.20;81.50;;;;;;5054590;28;20189;-73
2022/05/31 07:49:56;;;;;;;2.03;1.80;;;16.50;79.80;;;;;;5053736;28;20201;-73
2022/05/31 07:52:22;;;;;;;2.35;1.85;;;16.70;79.10;;;;;;5055079;28;20224;-73
2022/05/31 07:54:48;;;;;;;5.35;1.75;;;16.90;77.00;;;;;;5053784;28;20202;-73
2022/05/31 07:59:57;;;;;;;6.15;1.95;;;17.60;77.30;;;;;;5055174;28;20266;-73
2022/05/31 08:02:23;;;;;;;5.22;2.22;;;17.80;76.30;;;;;;5054024;28;20260;-73
2022/05/31 08:04:49;;;;;;;4.32;2.10;;;18.10;75.00;;;;;;5054766;28;20198;-73
2022/05/31 08:07:14;;;;;;;3.80;2.25;;;18.10;73.60;;;;;;5053620;28;20680;-73
2022/05/31 08:09:40;;;;;;;2.85;2.00;;;18.00;71.40;;;;;;5053848;28;20205;-73
2022/05/31 08:12:13;;;;;;;6.53;2.00;;;18.00;72.40;;;;;;5054969;28;20171;-73
2022/05/31 08:14:38;;;;;;;7.97;2.40;;;17.80;73.50;;;;;;5053283;28;20202;-73
2022/05/31 08:17:04;;;;;;;1.98;1.60;;;17.90;76.20;;;;;;5053492;28;20221;-73
2022/05/31 08:19:31;;;;;;;1.80;1.70;;;17.90;74.00;;;;;;5053662;28;20182;-73
2022/05/31 08:21:57;;;;;;;6.90;1.73;;;17.90;72.90;;;;;;5053352;28;20632;-73
2022/05/31 08:24:24;;;;;;;3.35;1.80;;;17.90;71.60;;;;;;5053033;28;20205;-73
2022/05/31 08:26:49;;;;;;;2.80;1.80;;;17.80;75.00;;;;;;5054244;28;20265;-73
2022/05/31 08:29:16;;;;;;;5.57;2.05;;;17.80;71.90;;;;;;5053520;28;20210;-73
2022/05/31 08:31:42;;;;;;;3.05;1.80;;;17.80;72.90;;;;;;5054262;28;20221;-73
2022/05/31 08:34:08;;;;;;;2.80;1.83;;;17.60;72.10;;;;;;5053276;28;20684;-73
2022/05/31 08:36:34;;;;;;;2.28;1.88;;;17.70;71.50;;;;;;5054113;28;20663;-73
2022/05/31 08:39:01;;;;;;;2.53;1.90;;;17.50;71.90;;;;;;5053456;28;20175;-73
2022/05/31 08:41:42;;;;;;;2.72;2.22;;;17.60;72.90;;;;;;5052784;28;20198;-73
2022/05/31 08:44:42;;;;;;;2.45;1.98;;;17.80;73.10;;;;;;5054116;28;20208;-73
2022/05/31 08:47:36;;;;;;;1.80;1.70;;;17.90;72.80;;;;;;5032953;28;20174;-73
2022/05/31 08:53:28;;;;;;;2.42;1.90;;;18.00;69.10;;;;;;5054342;28;20648;-73
2022/05/31 08:59:14;;;;;;;2.65;2.20;;;18.10;67.70;;;;;;5054383;28;20212;-73
2022/05/31 09:01:51;;;;;;;4.65;2.10;;;17.90;70.70;;;;;;5052393;28;20185;-73
2022/05/31 09:04:27;;;;;;;2.15;2.00;;;18.00;67.00;;;;;;5052510;28;20193;-73
2022/05/31 09:07:00;;;;;;;1.85;1.75;;;18.10;67.60;;;;;;5051727;28;20174;-73
2022/05/31 09:09:31;;;;;;;5.03;1.90;;;18.30;67.20;;;;;;5054365;28;20193;-73
2022/05/31 09:12:16;;;;;;;3.47;2.03;;;18.50;67.70;;;;;;5052974;28;20220;-73
2022/05/31 09:15:02;;;;;;;4.35;1.70;;;19.00;67.40;;;;;;5052360;28;20206;-72
2022/05/31 09:17:46;;;;;;;4.05;2.70;;;19.60;66.90;;;;;;5053601;28;20162;-73
2022/05/31 09:20:17;;;;;;;24.58;5.15;;;20.10;66.00;;;;;;5051237;28;20173;-74
2022/05/31 09:22:45;;;;;;;3.67;2.00;;;20.30;61.80;;;;;;5051562;28;20166;-73
2022/05/31 09:25:14;;;;;;;1.70;1.60;;;20.30;62.00;;;;;;5050789;28;20178;-73
2022/05/31 09:27:46;;;;;;;2.55;1.75;;;20.50;60.60;;;;;;5052211;28;20686;-73
2022/05/31 09:30:17;;;;;;;8.77;2.17;;;20.70;61.00;;;;;;5053933;28;20284;-73
2022/05/31 09:33:20;;;;;;;2.80;1.65;;;20.90;60.20;;;;;;5052699;28;20208;-74
2022/05/31 09:36:04;;;;;;;6.30;2.17;;;21.40;59.80;;;;;;5052273;28;20264;-73
2022/05/31 09:38:45;;;;;;;5.03;2.13;;;21.40;57.60;;;;;;5053793;28;20158;-73
2022/05/31 09:41:38;;;;;;;3.97;2.00;;;21.50;57.80;;;;;;5051886;28;20806;-73
2022/05/31 09:44:12;;;;;;;3.50;1.80;;;21.20;56.90;;;;;;5053174;28;20198;-73
2022/05/31 09:46:40;;;;;;;4.55;1.80;;;21.10;56.90;;;;;;5052078;28;20181;-73
2022/05/31 09:49:25;;;;;;;2.70;1.85;;;20.70;56.90;;;;;;5051736;28;20178;-73
2022/05/31 09:51:51;;;;;;;3.33;1.65;;;20.40;57.60;;;;;;5053085;28;20185;-73
2022/05/31 09:57:07;;;;;;;2.72;1.75;;;20.30;58.80;;;;;;5053064;28;20223;-73
2022/05/31 09:59:36;;;;;;;3.22;1.80;;;20.40;59.30;;;;;;5052191;28;20173;-73
2022/05/31 10:02:28;;;;;;;1.80;1.65;;;20.40;58.00;;;;;;5052333;28;20190;-73
2022/05/31 10:05:16;;;;;;;6.60;1.90;;;20.50;58.10;;;;;;5051679;28;20213;-73
2022/05/31 10:07:42;;;;;;;1.95;1.70;;;20.70;58.50;;;;;;5051739;28;20243;-73
2022/05/31 10:10:28;;;;;;;2.10;1.83;;;20.80;58.50;;;;;;5051855;28;20228;-73
2022/05/31 10:13:00;;;;;;;3.53;1.63;;;21.10;55.20;;;;;;5051863;28;20706;-73
2022/05/31 10:15:37;;;;;;;1.90;1.50;;;21.00;55.10;;;;;;5052890;28;20174;-73
2022/05/31 10:18:05;;;;;;;3.05;1.70;;;21.10;55.50;;;;;;5055489;28;20166;-73
2022/05/31 10:20:31;;;;;;;1.60;1.50;;;21.30;55.40;;;;;;5055763;28;20174;-73
2022/05/31 10:23:13;;;;;;;1.95;1.60;;;21.30;56.00;;;;;;5056149;28;20217;-73
2022/05/31 10:25:54;;;;;;;4.32;1.75;;;21.40;54.00;;;;;;5055512;28;20702;-74
2022/05/31 10:28:26;;;;;;;2.05;1.50;;;21.40;53.50;;;;;;5056430;28;20170;-73
2022/05/31 10:31:18;;;;;;;2.55;1.70;;;21.60;54.00;;;;;;5055413;28;20205;-73
2022/05/31 10:33:52;;;;;;;7.80;1.70;;;21.60;50.40;;;;;;5055286;28;20684;-73
2022/05/31 10:36:21;;;;;;;3.47;1.60;;;21.80;51.10;;;;;;5055700;28;20183;-73
2022/05/31 10:38:49;;;;;;;2.45;1.40;;;21.80;48.90;;;;;;5055993;28;20210;-73
2022/05/31 10:41:23;;;;;;;3.08;1.50;;;22.00;49.40;;;;;;5055186;28;20228;-73
2022/05/31 10:44:01;;;;;;;1.67;1.52;;;22.10;49.30;;;;;;5055479;28;20201;-73
2022/05/31 10:46:33;;;;;;;3.30;1.63;;;22.20;48.00;;;;;;5056781;28;20220;-73
2022/05/31 10:49:04;;;;;;;4.32;1.40;;;22.10;47.40;;;;;;5056549;28;20174;-73
2022/05/31 10:51:50;;;;;;;2.33;1.40;;;22.20;47.80;;;;;;5055500;28;20268;-73
2022/05/31 10:54:42;;;;;;;2.90;1.67;;;22.10;47.80;;;;;;5056457;28;20202;-73
2022/05/31 10:57:40;;;;;;;2.78;1.40;;;22.00;45.80;;;;;;5055146;28;20170;-73
2022/05/31 11:00:24;;;;;;;2.63;1.95;;;22.30;44.80;;;;;;5055602;28;20620;-73
2022/05/31 11:03:22;;;;;;;6.28;2.03;;;23.00;46.00;;;;;;5054861;28;20580;-73
2022/05/31 11:06:05;;;;;;;2.00;1.77;;;23.40;41.70;;;;;;5054919;28;20170;-74
2022/05/31 11:11:52;;;;;;;8.27;3.88;;;22.90;42.30;;;;;;5055887;28;20248;-73
2022/05/31 11:14:50;;;;;;;3.17;1.40;;;22.50;41.90;;;;;;5055469;28;20285;-74
2022/05/31 11:17:40;;;;;;;6.63;1.85;;;22.40;42.30;;;;;;5055064;28;20657;-74
2022/05/31 11:20:20;;;;;;;1.58;1.40;;;22.60;43.30;;;;;;5056176;28;20621;-75
2022/05/31 11:22:52;;;;;;;4.53;1.58;;;22.80;41.80;;;;;;5054555;28;20303;-75
2022/05/31 11:25:24;;;;;;;3.50;1.80;;;23.20;41.70;;;;;;5056369;28;20186;-73
2022/05/31 11:28:17;;;;;;;13.38;2.45;;;23.20;40.60;;;;;;5054717;28;20201;-73
2022/05/31 11:31:09;;;;;;;4.07;1.40;;;23.20;41.20;;;;;;5055792;28;20229;-75
2022/05/31 11:33:50;;;;;;;3.80;1.63;;;23.10;42.40;;;;;;5056641;28;20197;-74
2022/05/31 11:36:49;;;;;;;2.72;1.55;;;23.30;41.90;;;;;;5055177;28;20205;-73
2022/05/31 11:39:49;;;;;;;1.70;1.52;;;23.50;42.50;;;;;;5054946;28;20228;-74
2022/05/31 11:42:44;;;;;;;8.52;2.10;;;23.60;41.90;;;;;;5055143;28;20186;-75
2022/05/31 11:45:36;;;;;;;3.88;1.60;;;23.30;41.30;;;;;;5057091;28;20162;-76
2022/05/31 11:48:15;;;;;;;2.45;1.70;;;22.90;41.70;;;;;;5053832;28;20182;-74
2022/05/31 11:50:55;;;;;;;2.05;1.42;;;23.00;42.30;;;;;;5055209;28;20190;-74
2022/05/31 11:54:02;;;;;;;2.38;1.50;;;22.70;41.90;;;;;;5054503;28;20676;-73
2022/05/31 11:56:49;;;;;;;3.33;1.60;;;22.40;43.10;;;;;;5045369;28;20185;-73
2022/05/31 11:59:27;;;;;;;4.13;1.58;;;22.30;44.40;;;;;;5054548;28;20534;-74
2022/05/31 12:02:25;;;;;;;2.85;1.50;;;22.10;44.70;;;;;;5054557;28;20181;-73
2022/05/31 12:05:15;;;;;;;4.28;1.48;;;21.90;43.50;;;;;;5051342;28;20256;-74
2022/05/31 12:07:58;;;;;;;1.50;1.40;;;21.80;43.90;;;;;;5054030;28;20178;-75
2022/05/31 12:11:08;;;;;;;3.30;1.30;;;22.10;43.90;;;;;;5056127;28;20185;-79
2022/05/31 12:13:41;;;;;;;8.27;1.88;;;22.30;43.90;;;;;;5054868;28;20198;-73
2022/05/31 12:16:07;;;;;;;1.67;1.45;;;22.50;42.30;;;;;;5054758;28;20170;-74
2022/05/31 12:22:00;;;;;;;1.80;1.65;;;22.70;43.00;;;;;;5054212;28;20174;-74
2022/05/31 12:24:31;;;;;;;2.22;1.63;;;23.00;43.10;;;;;;5052911;28;20221;-74
2022/05/31 12:27:20;;;;;;;1.30;1.20;;;23.00;42.80;;;;;;5053758;28;20652;-74
2022/05/31 12:30:02;;;;;;;1.95;1.48;;;22.90;42.80;;;;;;5052769;28;20665;-74
2022/05/31 12:32:43;;;;;;;2.50;1.52;;;22.80;42.20;;;;;;5053439;28;20236;-74
2022/05/31 12:35:29;;;;;;;6.75;1.92;;;22.50;42.90;;;;;;5053845;28;20162;-74
2022/05/31 12:38:00;;;;;;;4.25;1.50;;;22.30;43.60;;;;;;5051464;28;20675;-75
2022/05/31 12:40:32;;;;;;;1.52;1.42;;;21.90;43.00;;;;;;5052834;28;20277;-75
2022/05/31 12:42:59;;;;;;;2.67;1.67;;;21.60;45.20;;;;;;5052789;28;20249;-73
2022/05/31 12:45:34;;;;;;;10.35;1.70;;;21.30;45.10;;;;;;5053037;28;20180;-73
2022/05/31 12:48:23;;;;;;;2.75;1.52;;;20.90;46.90;;;;;;5052761;28;20664;-73
2022/05/31 12:50:51;;;;;;;9.27;2.05;;;20.50;48.50;;;;;;5054567;28;20198;-73
2022/05/31 12:53:22;;;;;;;4.45;1.67;;;20.30;52.90;;;;;;5053564;28;20276;-73
2022/05/31 12:55:48;;;;;;;4.68;1.70;;;20.10;55.40;;;;;;5052734;28;20190;-73
2022/05/31 12:58:35;;;;;;;2.22;1.90;;;20.20;57.00;;;;;;5053169;28;20213;-73
2022/05/31 13:01:16;;;;;;;5.57;2.40;;;20.50;54.20;;;;;;5053381;28;20193;-74
2022/05/31 13:03:51;;;;;;;2.70;2.50;;;20.90;51.90;;;;;;5053271;28;20206;-74
2022/05/31 13:06:25;;;;;;;15.50;11.45;;;21.40;51.30;;;;;;5052896;28;20628;-74
2022/05/31 13:08:56;;;;;;;12.90;8.57;;;21.50;48.90;;;;;;5053189;28;20157;-74
2022/05/31 13:20:24;;;;;;;6.93;4.75;;;20.50;54.40;;;;;;5053987;28;20217;-74
2022/05/31 13:22:55;;;;;;;5.65;4.10;;;20.20;58.20;;;;;;5053694;28;20181;-73
2022/05/31 13:25:29;;;;;;;2.30;2.10;;;19.90;61.20;;;;;;5052724;28;20181;-73
2022/05/31 13:27:58;;;;;;;2.30;2.10;;;19.40;63.70;;;;;;5052523;28;20166;-73
2022/05/31 13:30:28;;;;;;;2.20;1.90;;;19.00;64.50;;;;;;5053629;28;20194;-73
2022/05/31 13:32:55;;;;;;;3.75;1.70;;;18.70;65.80;;;;;;5052140;28;20174;-73
2022/05/31 13:35:27;;;;;;;4.57;2.20;;;18.20;63.50;;;;;;5052084;28;20174;-73
2022/05/31 13:38:00;;;;;;;5.85;2.00;;;17.80;69.90;;;;;;5052232;28;20173;-73
2022/05/31 13:40:52;;;;;;;6.70;2.30;;;17.20;72.30;;;;;;5052142;28;20284;-74
2022/05/31 13:43:33;;;;;;;4.60;2.40;;;16.60;79.60;;;;;;5051892;28;20689;-74
2022/05/31 13:46:04;;;;;;;9.35;3.05;;;16.10;82.60;;;;;;5052521;28;20209;-76
2022/05/31 13:48:38;;;;;;;12.45;4.13;;;16.00;92.70;;;;;;5053428;28;20162;-74
2022/05/31 13:51:12;;;;;;;5.18;2.95;;;15.70;99.90;;;;;;5051577;28;20194;-74